sensor_id;sensor_type;location;lat;lon;timestamp;P1;durP1;ratioP1;P2;durP2;ratioP2
3487;SDS011;38546;48.170;11.724;2023-01-04T00:00:32;12.80;;;7.20;;
3487;SDS011;38546;48.170;11.724;2023-01-04T00:03:21;12.77;;;8.27;;
3487;SDS011;38546;48.170;11.724;2023-01-04T00:06:11;10.10;;;7.53;;
3487;SDS011;38546;48.170;11.724;2023-01-04T00:09:03;10.90;;;8.70;;
3487;SDS011;38546;48.170;11.724;2023-01-04T00:11:51;14.27;;;8.17;;
3487;SDS011;38546;48.170;11.724;2023-01-04T00:14:40;12.87;;;7.50;;
3487;SDS011;38546;48.170;11.724;2023-01-04T00:17:29;12.57;;;7.97;;
3487;SDS011;38546;48.170;11.724;2023-01-04T00:20:18;13.00;;;6.80;;
3487;SDS011;38546;48.170;11.724;2023-01-04T00:23:07;10.20;;;7.50;;
3487;SDS011;38546;48.170;11.724;2023-01-04T00:25:57;9.10;;;7.83;;
3487;SDS011;38546;48.170;11.724;2023-01-04T00:28:46;11.07;;;6.80;;
3487;SDS011;38546;48.170;11.724;2023-01-04T00:31:36;12.30;;;7.80;;
3487;SDS011;38546;48.170;11.724;2023-01-04T00:34:26;9.57;;;7.80;;
3487;SDS011;38546;48.170;11.724;2023-01-04T00:37:14;12.00;;;7.50;;
3487;SDS011;38546;48.170;11.724;2023-01-04T00:40:05;12.43;;;8.43;;
3487;SDS011;38546;48.170;11.724;2023-01-04T00:42:55;10.80;;;7.17;;
3487;SDS011;38546;48.170;11.724;2023-01-04T00:45:44;9.87;;;7.00;;
3487;SDS011;38546;48.170;11.724;2023-01-04T00:48:34;10.90;;;7.40;;
3487;SDS011;38546;48.170;11.724;2023-01-04T00:51:23;9.50;;;6.50;;
3487;SDS011;38546;48.170;11.724;2023-01-04T00:54:14;7.90;;;5.87;;
3487;SDS011;38546;48.170;11.724;2023-01-04T00:57:05;10.03;;;6.33;;
3487;SDS011;38546;48.170;11.724;2023-01-04T00:59:55;10.93;;;6.63;;
3487;SDS011;38546;48.170;11.724;2023-01-04T01:02:44;11.90;;;6.30;;
3487;SDS011;38546;48.170;11.724;2023-01-04T01:05:33;10.43;;;6.63;;
3487;SDS011;38546;48.170;11.724;2023-01-04T01:08:23;8.83;;;5.90;;
3487;SDS011;38546;48.170;11.724;2023-01-04T01:11:13;10.37;;;6.70;;
3487;SDS011;38546;48.170;11.724;2023-01-04T01:14:02;11.53;;;7.40;;
3487;SDS011;38546;48.170;11.724;2023-01-04T01:16:53;12.93;;;7.87;;
3487;SDS011;38546;48.170;11.724;2023-01-04T01:19:43;9.60;;;6.70;;
3487;SDS011;38546;48.170;11.724;2023-01-04T01:22:34;9.27;;;5.80;;
3487;SDS011;38546;48.170;11.724;2023-01-04T01:25:23;10.50;;;7.03;;
3487;SDS011;38546;48.170;11.724;2023-01-04T01:28:12;9.57;;;6.20;;
3487;SDS011;38546;48.170;11.724;2023-01-04T01:31:09;10.97;;;6.80;;
3487;SDS011;38546;48.170;11.724;2023-01-04T01:34:36;7.80;;;5.53;;
3487;SDS011;38546;48.170;11.724;2023-01-04T01:37:25;8.80;;;6.10;;
3487;SDS011;38546;48.170;11.724;2023-01-04T01:40:14;5.90;;;4.87;;
3487;SDS011;38546;48.170;11.724;2023-01-04T01:43:04;10.03;;;5.93;;
3487;SDS011;38546;48.170;11.724;2023-01-04T01:46:11;8.70;;;6.07;;
3487;SDS011;38546;48.170;11.724;2023-01-04T01:49:03;7.50;;;5.97;;
3487;SDS011;38546;48.170;11.724;2023-01-04T01:52:13;10.50;;;6.63;;
3487;SDS011;38546;48.170;11.724;2023-01-04T01:55:09;11.47;;;6.37;;
3487;SDS011;38546;48.170;11.724;2023-01-04T01:58:00;10.30;;;6.43;;
3487;SDS011;38546;48.170;11.724;2023-01-04T02:00:51;8.00;;;5.87;;
3487;SDS011;38546;48.170;11.724;2023-01-04T02:03:41;11.50;;;6.93;;
3487;SDS011;38546;48.170;11.724;2023-01-04T02:06:32;9.97;;;6.73;;
3487;SDS011;38546;48.170;11.724;2023-01-04T02:09:28;8.17;;;6.70;;
3487;SDS011;38546;48.170;11.724;2023-01-04T02:12:19;9.03;;;5.83;;
3487;SDS011;38546;48.170;11.724;2023-01-04T02:15:09;9.57;;;5.83;;
3487;SDS011;38546;48.170;11.724;2023-01-04T02:18:02;10.50;;;5.47;;
3487;SDS011;38546;48.170;11.724;2023-01-04T02:21:11;9.87;;;5.73;;
3487;SDS011;38546;48.170;11.724;2023-01-04T02:35:01;19.80;;;9.67;;
3487;SDS011;38546;48.170;11.724;2023-01-04T02:38:20;54.20;;;11.13;;
3487;SDS011;38546;48.170;11.724;2023-01-04T02:41:33;105.90;;;11.57;;
3487;SDS011;38546;48.170;11.724;2023-01-04T02:47:51;46.40;;;10.97;;
3487;SDS011;38546;48.170;11.724;2023-01-04T02:51:01;56.53;;;12.47;;
3487;SDS011;38546;48.170;11.724;2023-01-04T02:53:50;22.13;;;11.43;;
3487;SDS011;38546;48.170;11.724;2023-01-04T02:57:00;44.67;;;12.50;;
3487;SDS011;38546;48.170;11.724;2023-01-04T03:00:53;41.17;;;12.00;;
3487;SDS011;38546;48.170;11.724;2023-01-04T03:06:00;13.63;;;7.77;;
3487;SDS011;38546;48.170;11.724;2023-01-04T03:09:09;17.73;;;10.07;;
3487;SDS011;38546;48.170;11.724;2023-01-04T03:12:11;19.17;;;10.57;;
3487;SDS011;38546;48.170;11.724;2023-01-04T03:15:21;28.70;;;13.07;;
3487;SDS011;38546;48.170;11.724;2023-01-04T03:18:18;15.40;;;10.30;;
3487;SDS011;38546;48.170;11.724;2023-01-04T03:21:15;26.40;;;13.20;;
3487;SDS011;38546;48.170;11.724;2023-01-04T03:24:08;33.93;;;16.00;;
3487;SDS011;38546;48.170;11.724;2023-01-04T03:38:13;30.47;;;13.37;;
3487;SDS011;38546;48.170;11.724;2023-01-04T03:41:43;34.53;;;14.97;;
3487;SDS011;38546;48.170;11.724;2023-01-04T03:45:11;32.73;;;14.83;;
3487;SDS011;38546;48.170;11.724;2023-01-04T03:48:30;32.20;;;15.17;;
3487;SDS011;38546;48.170;11.724;2023-01-04T03:51:38;41.53;;;16.30;;
3487;SDS011;38546;48.170;11.724;2023-01-04T03:54:36;39.43;;;16.80;;
3487;SDS011;38546;48.170;11.724;2023-01-04T03:57:30;34.67;;;15.07;;
3487;SDS011;38546;48.170;11.724;2023-01-04T04:00:20;40.33;;;15.73;;
3487;SDS011;38546;48.170;11.724;2023-01-04T04:03:11;22.17;;;11.13;;
3487;SDS011;38546;48.170;11.724;2023-01-04T04:06:01;21.57;;;10.23;;
3487;SDS011;38546;48.170;11.724;2023-01-04T04:09:10;24.27;;;11.40;;
3487;SDS011;38546;48.170;11.724;2023-01-04T04:11:59;23.20;;;10.93;;
3487;SDS011;38546;48.170;11.724;2023-01-04T04:14:48;23.00;;;11.80;;
3487;SDS011;38546;48.170;11.724;2023-01-04T04:17:38;25.70;;;11.90;;
3487;SDS011;38546;48.170;11.724;2023-01-04T04:20:27;23.57;;;10.20;;
3487;SDS011;38546;48.170;11.724;2023-01-04T04:23:16;43.63;;;12.20;;
3487;SDS011;38546;48.170;11.724;2023-01-04T04:26:06;23.77;;;11.20;;
3487;SDS011;38546;48.170;11.724;2023-01-04T04:28:55;19.97;;;9.47;;
3487;SDS011;38546;48.170;11.724;2023-01-04T04:31:44;26.90;;;11.57;;
3487;SDS011;38546;48.170;11.724;2023-01-04T04:34:34;27.23;;;11.50;;
3487;SDS011;38546;48.170;11.724;2023-01-04T04:37:25;20.90;;;10.47;;
3487;SDS011;38546;48.170;11.724;2023-01-04T04:40:15;33.70;;;11.80;;
3487;SDS011;38546;48.170;11.724;2023-01-04T04:43:24;18.70;;;10.10;;
3487;SDS011;38546;48.170;11.724;2023-01-04T04:46:13;16.83;;;9.27;;
3487;SDS011;38546;48.170;11.724;2023-01-04T04:49:02;19.13;;;10.43;;
3487;SDS011;38546;48.170;11.724;2023-01-04T04:51:52;28.67;;;11.40;;
3487;SDS011;38546;48.170;11.724;2023-01-04T04:54:43;16.93;;;9.27;;
3487;SDS011;38546;48.170;11.724;2023-01-04T04:57:32;15.97;;;7.83;;
3487;SDS011;38546;48.170;11.724;2023-01-04T05:00:21;20.17;;;10.63;;
3487;SDS011;38546;48.170;11.724;2023-01-04T05:03:10;11.20;;;7.63;;
3487;SDS011;38546;48.170;11.724;2023-01-04T05:06:00;16.17;;;8.60;;
3487;SDS011;38546;48.170;11.724;2023-01-04T05:08:49;13.00;;;8.00;;
3487;SDS011;38546;48.170;11.724;2023-01-04T05:11:39;13.27;;;7.90;;
3487;SDS011;38546;48.170;11.724;2023-01-04T05:14:47;16.00;;;9.43;;
3487;SDS011;38546;48.170;11.724;2023-01-04T05:17:36;14.00;;;7.33;;
3487;SDS011;38546;48.170;11.724;2023-01-04T05:20:27;16.70;;;7.43;;
3487;SDS011;38546;48.170;11.724;2023-01-04T05:23:17;11.13;;;6.57;;
3487;SDS011;38546;48.170;11.724;2023-01-04T05:26:08;15.83;;;8.33;;
3487;SDS011;38546;48.170;11.724;2023-01-04T05:28:57;10.30;;;6.33;;
3487;SDS011;38546;48.170;11.724;2023-01-04T05:31:47;8.53;;;6.10;;
3487;SDS011;38546;48.170;11.724;2023-01-04T05:34:37;10.70;;;6.60;;
3487;SDS011;38546;48.170;11.724;2023-01-04T05:37:26;10.03;;;6.00;;
3487;SDS011;38546;48.170;11.724;2023-01-04T05:40:15;11.90;;;7.00;;
3487;SDS011;38546;48.170;11.724;2023-01-04T05:43:06;14.33;;;6.37;;
3487;SDS011;38546;48.170;11.724;2023-01-04T05:45:55;9.90;;;6.00;;
3487;SDS011;38546;48.170;11.724;2023-01-04T05:48:44;8.87;;;5.83;;
3487;SDS011;38546;48.170;11.724;2023-01-04T05:51:34;7.73;;;5.60;;
3487;SDS011;38546;48.170;11.724;2023-01-04T05:54:24;10.20;;;5.30;;
3487;SDS011;38546;48.170;11.724;2023-01-04T05:57:14;5.70;;;4.40;;
3487;SDS011;38546;48.170;11.724;2023-01-04T06:00:04;5.33;;;4.13;;
3487;SDS011;38546;48.170;11.724;2023-01-04T06:02:56;5.67;;;3.90;;
3487;SDS011;38546;48.170;11.724;2023-01-04T06:05:49;5.60;;;4.77;;
3487;SDS011;38546;48.170;11.724;2023-01-04T06:08:39;6.10;;;4.27;;
3487;SDS011;38546;48.170;11.724;2023-01-04T06:11:28;6.40;;;4.30;;
3487;SDS011;38546;48.170;11.724;2023-01-04T06:14:18;3.73;;;3.33;;
3487;SDS011;38546;48.170;11.724;2023-01-04T06:17:07;5.47;;;4.47;;
3487;SDS011;38546;48.170;11.724;2023-01-04T06:19:57;7.53;;;4.60;;
3487;SDS011;38546;48.170;11.724;2023-01-04T06:22:46;7.60;;;4.07;;
3487;SDS011;38546;48.170;11.724;2023-01-04T06:25:35;3.67;;;3.37;;
3487;SDS011;38546;48.170;11.724;2023-01-04T06:28:25;5.67;;;3.50;;
3487;SDS011;38546;48.170;11.724;2023-01-04T06:31:14;3.77;;;3.47;;
3487;SDS011;38546;48.170;11.724;2023-01-04T06:34:03;5.80;;;3.40;;
3487;SDS011;38546;48.170;11.724;2023-01-04T06:36:53;5.00;;;4.20;;
3487;SDS011;38546;48.170;11.724;2023-01-04T06:39:43;6.90;;;4.50;;
3487;SDS011;38546;48.170;11.724;2023-01-04T06:42:32;5.37;;;4.30;;
3487;SDS011;38546;48.170;11.724;2023-01-04T06:45:34;6.83;;;4.93;;
3487;SDS011;38546;48.170;11.724;2023-01-04T06:48:23;6.13;;;4.40;;
3487;SDS011;38546;48.170;11.724;2023-01-04T06:51:13;11.50;;;5.40;;
3487;SDS011;38546;48.170;11.724;2023-01-04T06:54:02;6.67;;;4.97;;
3487;SDS011;38546;48.170;11.724;2023-01-04T06:56:51;6.83;;;4.73;;
3487;SDS011;38546;48.170;11.724;2023-01-04T06:59:41;6.30;;;4.97;;
3487;SDS011;38546;48.170;11.724;2023-01-04T07:02:30;5.40;;;3.80;;
3487;SDS011;38546;48.170;11.724;2023-01-04T07:05:19;6.00;;;4.33;;
3487;SDS011;38546;48.170;11.724;2023-01-04T07:08:09;10.27;;;4.60;;
3487;SDS011;38546;48.170;11.724;2023-01-04T07:10:59;5.43;;;4.13;;
3487;SDS011;38546;48.170;11.724;2023-01-04T07:13:49;4.80;;;3.50;;
3487;SDS011;38546;48.170;11.724;2023-01-04T07:16:40;6.00;;;4.20;;
3487;SDS011;38546;48.170;11.724;2023-01-04T07:19:29;5.33;;;3.77;;
3487;SDS011;38546;48.170;11.724;2023-01-04T07:22:19;5.87;;;3.87;;
3487;SDS011;38546;48.170;11.724;2023-01-04T07:25:08;5.10;;;3.90;;
3487;SDS011;38546;48.170;11.724;2023-01-04T07:27:57;4.90;;;3.90;;
3487;SDS011;38546;48.170;11.724;2023-01-04T07:30:46;5.47;;;4.40;;
3487;SDS011;38546;48.170;11.724;2023-01-04T07:33:35;9.13;;;5.13;;
3487;SDS011;38546;48.170;11.724;2023-01-04T07:36:25;5.37;;;4.20;;
3487;SDS011;38546;48.170;11.724;2023-01-04T07:39:17;5.83;;;4.63;;
3487;SDS011;38546;48.170;11.724;2023-01-04T07:42:07;7.40;;;4.70;;
3487;SDS011;38546;48.170;11.724;2023-01-04T07:44:58;8.80;;;4.90;;
3487;SDS011;38546;48.170;11.724;2023-01-04T07:47:47;6.80;;;4.80;;
3487;SDS011;38546;48.170;11.724;2023-01-04T07:50:37;9.13;;;5.57;;
3487;SDS011;38546;48.170;11.724;2023-01-04T07:53:27;6.80;;;4.80;;
3487;SDS011;38546;48.170;11.724;2023-01-04T07:56:16;8.60;;;5.27;;
3487;SDS011;38546;48.170;11.724;2023-01-04T07:59:07;6.97;;;4.60;;
3487;SDS011;38546;48.170;11.724;2023-01-04T08:01:58;7.57;;;5.13;;
3487;SDS011;38546;48.170;11.724;2023-01-04T08:04:48;7.20;;;5.30;;
3487;SDS011;38546;48.170;11.724;2023-01-04T08:07:37;8.37;;;5.20;;
3487;SDS011;38546;48.170;11.724;2023-01-04T08:10:26;7.10;;;4.67;;
3487;SDS011;38546;48.170;11.724;2023-01-04T08:13:17;5.90;;;4.27;;
3487;SDS011;38546;48.170;11.724;2023-01-04T08:16:07;6.57;;;5.03;;
3487;SDS011;38546;48.170;11.724;2023-01-04T08:19:07;5.97;;;4.10;;
3487;SDS011;38546;48.170;11.724;2023-01-04T08:22:15;7.80;;;4.50;;
3487;SDS011;38546;48.170;11.724;2023-01-04T08:25:04;5.50;;;4.40;;
3487;SDS011;38546;48.170;11.724;2023-01-04T08:27:55;9.63;;;4.60;;
3487;SDS011;38546;48.170;11.724;2023-01-04T08:30:45;9.07;;;5.00;;
3487;SDS011;38546;48.170;11.724;2023-01-04T08:33:35;4.40;;;3.40;;
3487;SDS011;38546;48.170;11.724;2023-01-04T08:36:26;5.77;;;4.40;;
3487;SDS011;38546;48.170;11.724;2023-01-04T08:39:21;7.23;;;4.20;;
3487;SDS011;38546;48.170;11.724;2023-01-04T08:42:11;6.63;;;4.10;;
3487;SDS011;38546;48.170;11.724;2023-01-04T08:45:01;3.90;;;3.27;;
3487;SDS011;38546;48.170;11.724;2023-01-04T08:47:51;5.60;;;4.00;;
3487;SDS011;38546;48.170;11.724;2023-01-04T08:50:40;4.53;;;3.93;;
3487;SDS011;38546;48.170;11.724;2023-01-04T08:53:29;3.63;;;3.33;;
3487;SDS011;38546;48.170;11.724;2023-01-04T08:56:20;8.17;;;4.50;;
3487;SDS011;38546;48.170;11.724;2023-01-04T08:59:09;6.77;;;4.57;;
3487;SDS011;38546;48.170;11.724;2023-01-04T09:02:01;7.60;;;4.90;;
3487;SDS011;38546;48.170;11.724;2023-01-04T09:04:51;11.10;;;5.40;;
3487;SDS011;38546;48.170;11.724;2023-01-04T09:07:47;6.60;;;4.47;;
3487;SDS011;38546;48.170;11.724;2023-01-04T09:10:37;5.40;;;3.37;;
3487;SDS011;38546;48.170;11.724;2023-01-04T09:13:27;4.27;;;3.50;;
3487;SDS011;38546;48.170;11.724;2023-01-04T09:16:17;4.43;;;3.97;;
3487;SDS011;38546;48.170;11.724;2023-01-04T09:19:08;4.70;;;4.00;;
3487;SDS011;38546;48.170;11.724;2023-01-04T09:21:57;4.67;;;3.70;;
3487;SDS011;38546;48.170;11.724;2023-01-04T09:24:46;3.43;;;2.93;;
3487;SDS011;38546;48.170;11.724;2023-01-04T09:27:36;5.33;;;3.70;;
3487;SDS011;38546;48.170;11.724;2023-01-04T09:30:27;5.13;;;3.60;;
3487;SDS011;38546;48.170;11.724;2023-01-04T09:33:19;5.63;;;2.73;;
3487;SDS011;38546;48.170;11.724;2023-01-04T09:36:09;2.93;;;2.70;;
3487;SDS011;38546;48.170;11.724;2023-01-04T09:39:03;4.80;;;2.90;;
3487;SDS011;38546;48.170;11.724;2023-01-04T09:41:56;4.30;;;3.40;;
3487;SDS011;38546;48.170;11.724;2023-01-04T09:44:51;2.70;;;2.50;;
3487;SDS011;38546;48.170;11.724;2023-01-04T09:47:57;6.23;;;2.47;;
3487;SDS011;38546;48.170;11.724;2023-01-04T09:51:01;3.57;;;2.87;;
3487;SDS011;38546;48.170;11.724;2023-01-04T09:53:58;3.23;;;2.93;;
3487;SDS011;38546;48.170;11.724;2023-01-04T09:56:55;3.70;;;2.67;;
3487;SDS011;38546;48.170;11.724;2023-01-04T09:59:46;2.67;;;2.47;;
3487;SDS011;38546;48.170;11.724;2023-01-04T10:02:55;2.73;;;2.53;;
3487;SDS011;38546;48.170;11.724;2023-01-04T10:05:53;2.50;;;2.30;;
3487;SDS011;38546;48.170;11.724;2023-01-04T10:08:43;2.30;;;2.20;;
3487;SDS011;38546;48.170;11.724;2023-01-04T10:14:56;2.23;;;2.03;;
3487;SDS011;38546;48.170;11.724;2023-01-04T10:21:50;3.80;;;1.87;;
3487;SDS011;38546;48.170;11.724;2023-01-04T10:24:47;1.77;;;1.67;;
3487;SDS011;38546;48.170;11.724;2023-01-04T10:28:06;1.80;;;1.67;;
3487;SDS011;38546;48.170;11.724;2023-01-04T10:35:46;1.67;;;1.67;;
3487;SDS011;38546;48.170;11.724;2023-01-04T10:38:37;1.80;;;1.70;;
3487;SDS011;38546;48.170;11.724;2023-01-04T10:41:30;2.23;;;2.03;;
3487;SDS011;38546;48.170;11.724;2023-01-04T10:49:41;2.20;;;2.00;;
3487;SDS011;38546;48.170;11.724;2023-01-04T11:00:34;1.40;;;1.30;;
3487;SDS011;38546;48.170;11.724;2023-01-04T11:03:42;1.30;;;1.27;;
3487;SDS011;38546;48.170;11.724;2023-01-04T11:06:43;3.63;;;1.70;;
3487;SDS011;38546;48.170;11.724;2023-01-04T11:09:46;1.70;;;1.60;;
3487;SDS011;38546;48.170;11.724;2023-01-04T11:12:43;1.43;;;1.33;;
3487;SDS011;38546;48.170;11.724;2023-01-04T11:15:33;0.97;;;0.93;;
3487;SDS011;38546;48.170;11.724;2023-01-04T11:18:23;0.87;;;0.87;;
3487;SDS011;38546;48.170;11.724;2023-01-04T11:21:13;1.10;;;1.10;;
3487;SDS011;38546;48.170;11.724;2023-01-04T11:24:08;1.60;;;1.50;;
3487;SDS011;38546;48.170;11.724;2023-01-04T11:27:02;1.10;;;1.10;;
3487;SDS011;38546;48.170;11.724;2023-01-04T11:30:03;0.90;;;0.90;;
3487;SDS011;38546;48.170;11.724;2023-01-04T11:33:11;1.50;;;1.40;;
3487;SDS011;38546;48.170;11.724;2023-01-04T11:36:05;2.17;;;1.53;;
3487;SDS011;38546;48.170;11.724;2023-01-04T11:38:55;1.93;;;1.83;;
3487;SDS011;38546;48.170;11.724;2023-01-04T11:41:59;1.20;;;1.20;;
3487;SDS011;38546;48.170;11.724;2023-01-04T11:44:58;1.40;;;1.30;;
3487;SDS011;38546;48.170;11.724;2023-01-04T11:47:49;1.47;;;1.40;;
3487;SDS011;38546;48.170;11.724;2023-01-04T11:50:43;1.57;;;1.47;;
3487;SDS011;38546;48.170;11.724;2023-01-04T11:53:35;1.60;;;1.50;;
3487;SDS011;38546;48.170;11.724;2023-01-04T11:56:30;1.40;;;1.30;;
3487;SDS011;38546;48.170;11.724;2023-01-04T11:59:25;1.03;;;1.00;;
3487;SDS011;38546;48.170;11.724;2023-01-04T12:02:22;2.80;;;1.50;;
3487;SDS011;38546;48.170;11.724;2023-01-04T12:05:19;1.17;;;1.17;;
3487;SDS011;38546;48.170;11.724;2023-01-04T12:08:21;1.50;;;1.40;;
3487;SDS011;38546;48.170;11.724;2023-01-04T12:11:33;1.00;;;1.00;;
3487;SDS011;38546;48.170;11.724;2023-01-04T12:14:25;1.40;;;1.27;;
3487;SDS011;38546;48.170;11.724;2023-01-04T12:17:34;1.40;;;1.30;;
3487;SDS011;38546;48.170;11.724;2023-01-04T12:20:36;1.10;;;1.10;;
3487;SDS011;38546;48.170;11.724;2023-01-04T12:23:26;1.53;;;1.43;;
3487;SDS011;38546;48.170;11.724;2023-01-04T12:26:16;1.33;;;1.23;;
3487;SDS011;38546;48.170;11.724;2023-01-04T12:44:01;1.27;;;1.23;;
3487;SDS011;38546;48.170;11.724;2023-01-04T12:47:44;1.70;;;1.60;;
3487;SDS011;38546;48.170;11.724;2023-01-04T12:54:21;1.53;;;1.43;;
3487;SDS011;38546;48.170;11.724;2023-01-04T13:10:31;1.40;;;1.30;;
3487;SDS011;38546;48.170;11.724;2023-01-04T13:13:48;3.03;;;1.90;;
3487;SDS011;38546;48.170;11.724;2023-01-04T13:17:14;3.20;;;2.20;;
3487;SDS011;38546;48.170;11.724;2023-01-04T13:20:15;1.60;;;1.43;;
3487;SDS011;38546;48.170;11.724;2023-01-04T13:23:10;0.97;;;0.97;;
3487;SDS011;38546;48.170;11.724;2023-01-04T13:29:42;2.40;;;2.20;;
3487;SDS011;38546;48.170;11.724;2023-01-04T13:32:32;1.50;;;1.20;;
3487;SDS011;38546;48.170;11.724;2023-01-04T13:35:21;1.20;;;1.20;;
3487;SDS011;38546;48.170;11.724;2023-01-04T13:38:14;0.90;;;0.90;;
3487;SDS011;38546;48.170;11.724;2023-01-04T13:41:10;1.07;;;0.80;;
3487;SDS011;38546;48.170;11.724;2023-01-04T13:44:10;2.30;;;1.00;;
3487;SDS011;38546;48.170;11.724;2023-01-04T13:48:33;0.80;;;0.80;;
3487;SDS011;38546;48.170;11.724;2023-01-04T13:51:26;0.80;;;0.80;;
3487;SDS011;38546;48.170;11.724;2023-01-04T13:54:22;0.90;;;0.90;;
3487;SDS011;38546;48.170;11.724;2023-01-04T13:57:16;0.80;;;0.80;;
3487;SDS011;38546;48.170;11.724;2023-01-04T14:00:09;0.73;;;0.73;;
3487;SDS011;38546;48.170;11.724;2023-01-04T14:03:39;0.90;;;0.70;;
3487;SDS011;38546;48.170;11.724;2023-01-04T14:06:32;0.73;;;0.73;;
3487;SDS011;38546;48.170;11.724;2023-01-04T14:09:34;0.80;;;0.80;;
3487;SDS011;38546;48.170;11.724;2023-01-04T14:12:34;1.00;;;1.00;;
3487;SDS011;38546;48.170;11.724;2023-01-04T14:15:24;0.80;;;0.80;;
3487;SDS011;38546;48.170;11.724;2023-01-04T14:18:27;2.67;;;1.20;;
3487;SDS011;38546;48.170;11.724;2023-01-04T14:21:19;1.13;;;0.80;;
3487;SDS011;38546;48.170;11.724;2023-01-04T14:24:30;0.90;;;0.90;;
3487;SDS011;38546;48.170;11.724;2023-01-04T14:27:37;1.07;;;0.73;;
3487;SDS011;38546;48.170;11.724;2023-01-04T14:30:28;1.17;;;0.70;;
3487;SDS011;38546;48.170;11.724;2023-01-04T14:33:18;1.27;;;0.87;;
3487;SDS011;38546;48.170;11.724;2023-01-04T14:36:26;0.80;;;0.80;;
3487;SDS011;38546;48.170;11.724;2023-01-04T14:39:20;1.10;;;1.00;;
3487;SDS011;38546;48.170;11.724;2023-01-04T14:42:22;0.97;;;0.97;;
3487;SDS011;38546;48.170;11.724;2023-01-04T14:45:14;1.63;;;1.00;;
3487;SDS011;38546;48.170;11.724;2023-01-04T14:48:04;1.13;;;0.70;;
3487;SDS011;38546;48.170;11.724;2023-01-04T14:50:54;1.07;;;0.60;;
3487;SDS011;38546;48.170;11.724;2023-01-04T14:53:44;0.80;;;0.80;;
3487;SDS011;38546;48.170;11.724;2023-01-04T14:56:34;0.80;;;0.80;;
3487;SDS011;38546;48.170;11.724;2023-01-04T14:59:24;0.80;;;0.80;;
3487;SDS011;38546;48.170;11.724;2023-01-04T15:02:14;0.67;;;0.67;;
3487;SDS011;38546;48.170;11.724;2023-01-04T15:05:04;0.70;;;0.70;;
3487;SDS011;38546;48.170;11.724;2023-01-04T15:07:53;0.80;;;0.80;;
3487;SDS011;38546;48.170;11.724;2023-01-04T15:10:43;0.53;;;0.53;;
3487;SDS011;38546;48.170;11.724;2023-01-04T15:13:34;0.93;;;0.70;;
3487;SDS011;38546;48.170;11.724;2023-01-04T15:16:26;1.27;;;1.17;;
3487;SDS011;38546;48.170;11.724;2023-01-04T15:19:15;0.73;;;0.73;;
3487;SDS011;38546;48.170;11.724;2023-01-04T15:22:05;0.97;;;0.93;;
3487;SDS011;38546;48.170;11.724;2023-01-04T15:24:54;1.13;;;0.80;;
3487;SDS011;38546;48.170;11.724;2023-01-04T15:27:43;0.73;;;0.73;;
3487;SDS011;38546;48.170;11.724;2023-01-04T15:30:32;0.97;;;0.83;;
3487;SDS011;38546;48.170;11.724;2023-01-04T15:33:22;1.03;;;1.03;;
3487;SDS011;38546;48.170;11.724;2023-01-04T15:36:13;0.87;;;0.87;;
3487;SDS011;38546;48.170;11.724;2023-01-04T15:39:06;0.83;;;0.83;;
3487;SDS011;38546;48.170;11.724;2023-01-04T15:42:00;1.23;;;1.10;;
3487;SDS011;38546;48.170;11.724;2023-01-04T15:45:08;0.80;;;0.80;;
3487;SDS011;38546;48.170;11.724;2023-01-04T15:47:58;0.60;;;0.60;;
3487;SDS011;38546;48.170;11.724;2023-01-04T15:50:51;1.27;;;0.93;;
3487;SDS011;38546;48.170;11.724;2023-01-04T15:53:40;1.00;;;1.00;;
3487;SDS011;38546;48.170;11.724;2023-01-04T15:56:29;0.90;;;0.90;;
3487;SDS011;38546;48.170;11.724;2023-01-04T15:59:19;0.60;;;0.60;;
3487;SDS011;38546;48.170;11.724;2023-01-04T16:02:09;1.53;;;0.80;;
3487;SDS011;38546;48.170;11.724;2023-01-04T16:04:59;1.40;;;1.10;;
3487;SDS011;38546;48.170;11.724;2023-01-04T16:07:48;0.90;;;0.90;;
3487;SDS011;38546;48.170;11.724;2023-01-04T16:10:37;0.83;;;0.83;;
3487;SDS011;38546;48.170;11.724;2023-01-04T16:13:27;1.37;;;1.20;;
3487;SDS011;38546;48.170;11.724;2023-01-04T16:16:16;1.70;;;1.47;;
3487;SDS011;38546;48.170;11.724;2023-01-04T16:19:08;0.73;;;0.73;;
3487;SDS011;38546;48.170;11.724;2023-01-04T16:21:57;0.87;;;0.87;;
3487;SDS011;38546;48.170;11.724;2023-01-04T16:24:47;1.07;;;0.80;;
3487;SDS011;38546;48.170;11.724;2023-01-04T16:27:36;0.90;;;0.90;;
3487;SDS011;38546;48.170;11.724;2023-01-04T16:30:26;1.00;;;1.00;;
3487;SDS011;38546;48.170;11.724;2023-01-04T16:33:21;1.03;;;1.03;;
3487;SDS011;38546;48.170;11.724;2023-01-04T16:36:10;1.20;;;1.20;;
3487;SDS011;38546;48.170;11.724;2023-01-04T16:39:00;1.20;;;1.17;;
3487;SDS011;38546;48.170;11.724;2023-01-04T16:41:49;0.80;;;0.80;;
3487;SDS011;38546;48.170;11.724;2023-01-04T16:44:38;2.00;;;0.80;;
3487;SDS011;38546;48.170;11.724;2023-01-04T16:47:29;0.70;;;0.70;;
3487;SDS011;38546;48.170;11.724;2023-01-04T16:50:27;0.80;;;0.80;;
3487;SDS011;38546;48.170;11.724;2023-01-04T16:53:16;1.00;;;0.90;;
3487;SDS011;38546;48.170;11.724;2023-01-04T16:56:06;0.80;;;0.80;;
3487;SDS011;38546;48.170;11.724;2023-01-04T16:58:57;0.77;;;0.70;;
3487;SDS011;38546;48.170;11.724;2023-01-04T17:01:49;0.97;;;0.70;;
3487;SDS011;38546;48.170;11.724;2023-01-04T17:04:39;0.70;;;0.70;;
3487;SDS011;38546;48.170;11.724;2023-01-04T17:07:29;0.80;;;0.80;;
3487;SDS011;38546;48.170;11.724;2023-01-04T17:10:20;0.70;;;0.70;;
3487;SDS011;38546;48.170;11.724;2023-01-04T17:13:09;0.80;;;0.80;;
3487;SDS011;38546;48.170;11.724;2023-01-04T17:15:58;0.70;;;0.70;;
3487;SDS011;38546;48.170;11.724;2023-01-04T17:18:50;0.70;;;0.70;;
3487;SDS011;38546;48.170;11.724;2023-01-04T17:21:40;1.00;;;1.00;;
3487;SDS011;38546;48.170;11.724;2023-01-04T17:24:29;0.90;;;0.90;;
3487;SDS011;38546;48.170;11.724;2023-01-04T17:27:18;0.70;;;0.70;;
3487;SDS011;38546;48.170;11.724;2023-01-04T17:30:07;0.90;;;0.70;;
3487;SDS011;38546;48.170;11.724;2023-01-04T17:32:57;0.60;;;0.60;;
3487;SDS011;38546;48.170;11.724;2023-01-04T17:35:46;0.70;;;0.70;;
3487;SDS011;38546;48.170;11.724;2023-01-04T17:38:35;0.70;;;0.70;;
3487;SDS011;38546;48.170;11.724;2023-01-04T17:41:25;1.03;;;0.60;;
3487;SDS011;38546;48.170;11.724;2023-01-04T17:44:15;0.67;;;0.67;;
3487;SDS011;38546;48.170;11.724;2023-01-04T17:47:04;1.43;;;1.00;;
3487;SDS011;38546;48.170;11.724;2023-01-04T17:49:53;0.80;;;0.80;;
3487;SDS011;38546;48.170;11.724;2023-01-04T17:52:43;1.70;;;0.57;;
3487;SDS011;38546;48.170;11.724;2023-01-04T17:55:44;8.43;;;1.13;;
3487;SDS011;38546;48.170;11.724;2023-01-04T17:58:33;1.00;;;1.00;;
3487;SDS011;38546;48.170;11.724;2023-01-04T18:01:24;0.80;;;0.80;;
3487;SDS011;38546;48.170;11.724;2023-01-04T18:04:14;1.37;;;1.10;;
3487;SDS011;38546;48.170;11.724;2023-01-04T18:07:02;0.80;;;0.80;;
3487;SDS011;38546;48.170;11.724;2023-01-04T18:09:52;0.90;;;0.90;;
3487;SDS011;38546;48.170;11.724;2023-01-04T18:12:42;0.80;;;0.80;;
3487;SDS011;38546;48.170;11.724;2023-01-04T18:15:32;0.83;;;0.83;;
3487;SDS011;38546;48.170;11.724;2023-01-04T18:18:21;0.87;;;0.87;;
3487;SDS011;38546;48.170;11.724;2023-01-04T18:21:17;1.10;;;1.07;;
3487;SDS011;38546;48.170;11.724;2023-01-04T18:24:15;0.83;;;0.83;;
3487;SDS011;38546;48.170;11.724;2023-01-04T18:27:06;0.77;;;0.77;;
3487;SDS011;38546;48.170;11.724;2023-01-04T18:29:57;0.77;;;0.63;;
3487;SDS011;38546;48.170;11.724;2023-01-04T18:32:47;0.70;;;0.70;;
3487;SDS011;38546;48.170;11.724;2023-01-04T18:35:36;0.73;;;0.73;;
3487;SDS011;38546;48.170;11.724;2023-01-04T18:38:26;1.10;;;1.10;;
3487;SDS011;38546;48.170;11.724;2023-01-04T18:41:16;1.43;;;0.90;;
3487;SDS011;38546;48.170;11.724;2023-01-04T18:44:07;1.00;;;1.00;;
3487;SDS011;38546;48.170;11.724;2023-01-04T18:46:58;1.10;;;1.00;;
3487;SDS011;38546;48.170;11.724;2023-01-04T18:49:47;0.80;;;0.80;;